createdAt,value
2024-05-09T00:00:54.959Z,49.29
2024-05-09T00:02:22.660Z,48.67
2024-05-09T00:03:25.730Z,49.29
2024-05-09T00:04:28.204Z,49.16
2024-05-09T00:05:30.743Z,49.49
2024-05-09T00:06:32.990Z,48.98
2024-05-09T00:07:36.862Z,49.44
2024-05-09T00:08:42.725Z,48.79
2024-05-09T00:09:46.814Z,48.86
2024-05-09T00:10:50.571Z,48.90
2024-05-09T00:11:54.604Z,49.20
2024-05-09T00:12:56.873Z,48.65
2024-05-09T00:14:03.057Z,48.88
2024-05-09T00:15:05.498Z,48.88
2024-05-09T00:16:09.544Z,48.58
2024-05-09T00:17:11.858Z,48.91
2024-05-09T00:18:18.137Z,48.80
2024-05-09T00:19:20.857Z,49.02
2024-05-09T00:20:42.719Z,47.91
2024-05-09T00:21:45.784Z,48.03
2024-05-09T00:22:48.204Z,47.99
2024-05-09T00:23:50.524Z,47.70
2024-05-09T00:24:59.344Z,48.05
2024-05-09T00:26:04.683Z,47.87
2024-05-09T00:27:07.605Z,47.97
2024-05-09T00:28:13.430Z,48.07
2024-05-09T00:29:16.221Z,48.08
2024-05-09T00:30:31.025Z,48.08
2024-05-09T00:31:38.645Z,47.92
2024-05-09T00:32:41.113Z,47.89
2024-05-09T00:33:44.816Z,48.09
2024-05-09T00:34:46.972Z,47.96
2024-05-09T00:35:49.293Z,48.06
2024-05-09T00:36:51.269Z,48.32
2024-05-09T00:37:55.178Z,47.99
2024-05-09T00:38:57.178Z,48.34
2024-05-09T00:40:31.207Z,48.44
2024-05-09T00:41:40.860Z,47.98
2024-05-09T00:42:46.363Z,48.32
2024-05-09T00:43:48.409Z,48.21
2024-05-09T00:44:50.744Z,48.01
2024-05-09T00:45:55.796Z,48.03
2024-05-09T00:46:58.711Z,48.40
2024-05-09T00:48:06.154Z,48.28
2024-05-09T00:49:11.670Z,48.47
2024-05-09T00:50:19.428Z,48.41
2024-05-09T00:51:28.404Z,48.17
2024-05-09T00:52:31.965Z,47.98
2024-05-09T00:53:53.526Z,48.36
2024-05-09T00:54:58.183Z,48.32
2024-05-09T00:56:00.598Z,48.38
2024-05-09T00:57:05.787Z,48.58
2024-05-09T00:58:11.336Z,48.52
2024-05-09T00:59:15.448Z,48.26
2024-05-09T01:00:26.601Z,48.60
2024-05-09T01:01:40.362Z,48.29
2024-05-09T01:02:45.838Z,48.57
2024-05-09T01:03:51.181Z,48.49
2024-05-09T01:04:54.675Z,48.12
2024-05-09T01:06:01.395Z,48.71
2024-05-09T01:07:04.671Z,48.75
2024-05-09T01:08:09.457Z,49.16
2024-05-09T01:09:14.903Z,48.56
2024-05-09T01:10:23.878Z,48.37
2024-05-09T01:11:40.768Z,48.46
2024-05-09T01:12:46.179Z,48.42
2024-05-09T01:13:51.628Z,48.47
2024-05-09T01:14:54.642Z,48.32
2024-05-09T01:15:57.164Z,48.86
2024-05-09T01:17:00.764Z,48.44
2024-05-09T01:18:08.960Z,48.43
2024-05-09T01:19:29.716Z,48.36
2024-05-09T01:20:40.346Z,48.43
2024-05-09T01:21:45.441Z,48.40
2024-05-09T01:22:53.239Z,48.47
2024-05-09T01:23:55.774Z,48.35
2024-05-09T01:24:57.996Z,48.27
2024-05-09T01:26:00.411Z,48.44
2024-05-09T01:27:02.992Z,48.39
2024-05-09T01:28:05.685Z,48.33
2024-05-09T01:29:08.090Z,48.29
2024-05-09T01:30:17.008Z,48.42
2024-05-09T01:31:24.642Z,48.23
2024-05-09T01:32:27.134Z,48.36
2024-05-09T01:33:31.418Z,48.14
2024-05-09T01:34:35.907Z,48.40
2024-05-09T01:35:42.792Z,48.12
2024-05-09T01:36:45.225Z,48.38
2024-05-09T01:37:48.035Z,48.30
2024-05-09T01:38:52.872Z,48.31
2024-05-09T01:39:58.700Z,49.01
2024-05-09T01:41:01.090Z,48.63
2024-05-09T01:42:03.750Z,48.34
2024-05-09T01:43:11.939Z,48.58
2024-05-09T01:44:16.659Z,48.72
2024-05-09T01:45:18.923Z,48.77
2024-05-09T01:46:21.160Z,48.76
2024-05-09T01:47:23.618Z,48.75
2024-05-09T01:48:26.067Z,48.92
2024-05-09T01:49:28.511Z,48.70
2024-05-09T01:50:37.689Z,48.69
2024-05-09T01:51:43.413Z,48.97
2024-05-09T01:52:47.476Z,49.23
2024-05-09T01:53:53.552Z,48.92
2024-05-09T01:54:57.460Z,49.01
2024-05-09T01:56:00.138Z,49.45
2024-05-09T01:57:02.465Z,49.21
2024-05-09T01:58:10.648Z,49.34
2024-05-09T01:59:13.264Z,49.29
2024-05-09T02:00:22.229Z,49.24
2024-05-09T02:01:56.097Z,49.42
2024-05-09T02:03:02.248Z,49.72
2024-05-09T02:04:06.126Z,49.23
2024-05-09T02:05:08.420Z,49.26
2024-05-09T02:06:12.734Z,49.62
2024-05-09T02:07:15.558Z,49.20
2024-05-09T02:08:22.128Z,49.09
2024-05-09T02:09:25.939Z,49.84
2024-05-09T02:10:32.506Z,49.53
2024-05-09T02:11:47.562Z,49.76
2024-05-09T02:13:17.500Z,49.50
2024-05-09T02:14:22.696Z,49.57
2024-05-09T02:15:24.982Z,49.81
2024-05-09T02:16:28.675Z,49.69
2024-05-09T02:17:31.307Z,49.70
2024-05-09T02:18:33.500Z,49.75
2024-05-09T02:19:35.787Z,49.88
2024-05-09T02:20:44.382Z,49.76
2024-05-09T02:21:47.294Z,49.95
2024-05-09T02:22:50.344Z,49.90
2024-05-09T02:23:52.914Z,49.59
2024-05-09T02:24:55.118Z,50.00
2024-05-09T02:25:57.498Z,49.52
2024-05-09T02:27:25.341Z,49.69
2024-05-09T02:28:27.660Z,49.98
2024-05-09T02:29:34.267Z,49.87
2024-05-09T02:30:42.690Z,49.89
2024-05-09T02:31:45.189Z,50.14
2024-05-09T02:32:48.759Z,50.12
2024-05-09T02:33:52.944Z,49.88
2024-05-09T02:34:55.430Z,50.03
2024-05-09T02:35:57.687Z,50.03
2024-05-09T02:37:25.142Z,50.15
2024-05-09T02:38:27.235Z,50.06
2024-05-09T02:39:29.539Z,50.08
2024-05-09T02:40:37.538Z,49.96
2024-05-09T02:41:43.741Z,50.06
2024-05-09T02:43:11.788Z,50.18
2024-05-09T02:44:14.915Z,50.15
2024-05-09T02:45:23.794Z,50.47
2024-05-09T02:46:26.801Z,50.16
2024-05-09T02:47:29.356Z,50.29
2024-05-09T02:48:31.822Z,50.06
2024-05-09T02:49:36.808Z,50.37
2024-05-09T02:50:54.451Z,50.69
2024-05-09T02:52:21.232Z,50.31
2024-05-09T02:53:23.710Z,50.03
2024-05-09T02:55:55.931Z,50.12
2024-05-09T02:57:00.474Z,50.11
2024-05-09T02:58:02.812Z,50.06
2024-05-09T02:59:04.952Z,50.08
2024-05-09T03:00:18.417Z,50.15
2024-05-09T03:01:24.980Z,49.96
2024-05-09T03:02:35.519Z,50.32
2024-05-09T03:03:43.676Z,49.72
2024-05-09T03:04:46.594Z,49.87
2024-05-09T03:05:50.797Z,49.97
2024-05-09T03:06:53.036Z,50.11
2024-05-09T03:07:55.264Z,50.52
2024-05-09T03:09:22.691Z,50.40
2024-05-09T03:10:29.049Z,50.04
2024-05-09T03:11:41.202Z,50.23
2024-05-09T03:12:45.167Z,50.29
2024-05-09T03:13:49.740Z,50.09
2024-05-09T03:14:54.071Z,50.49
2024-05-09T03:15:59.050Z,50.08
2024-05-09T03:17:03.245Z,50.52
2024-05-09T03:18:05.928Z,50.57
2024-05-09T03:19:12.729Z,49.97
2024-05-09T03:20:20.727Z,50.43
2024-05-09T03:21:27.336Z,50.21
2024-05-09T03:22:29.907Z,50.06
2024-05-09T03:23:33.259Z,50.36
2024-05-09T03:24:35.811Z,49.71
2024-05-09T03:25:37.899Z,49.70
2024-05-09T03:26:40.538Z,49.22
2024-05-09T03:27:43.716Z,48.66
2024-05-09T03:28:45.986Z,48.78
2024-05-09T03:29:52.461Z,48.57
2024-05-09T03:30:56.171Z,47.81
2024-05-09T03:31:59.831Z,47.72
2024-05-09T03:33:02.238Z,47.54
2024-05-09T03:34:05.983Z,47.42
2024-05-09T03:35:35.358Z,46.75
2024-05-09T03:36:42.034Z,46.63
2024-05-09T03:38:04.628Z,46.83
2024-05-09T03:39:11.676Z,46.40
2024-05-09T03:40:23.802Z,45.68
2024-05-09T03:41:28.880Z,45.69
2024-05-09T03:42:31.162Z,45.42
2024-05-09T03:43:35.909Z,44.69
2024-05-09T03:44:38.139Z,44.39
2024-05-09T03:46:00.615Z,43.88
2024-05-09T03:47:04.493Z,43.91
2024-05-09T03:48:07.319Z,43.85
2024-05-09T03:49:13.675Z,43.72
2024-05-09T03:50:33.729Z,43.61
2024-05-09T03:51:38.140Z,43.21
2024-05-09T03:52:54.937Z,43.08
2024-05-09T03:53:57.724Z,42.26
2024-05-09T03:55:05.928Z,42.92
2024-05-09T03:56:08.682Z,43.02
2024-05-09T03:57:11.104Z,43.78
2024-05-09T03:58:14.146Z,45.28
2024-05-09T03:59:17.215Z,45.75
2024-05-09T04:00:30.029Z,45.83
2024-05-09T04:01:37.654Z,46.06
2024-05-09T04:02:42.448Z,46.63
2024-05-09T04:03:45.146Z,47.26
2024-05-09T04:04:48.315Z,47.16
2024-05-09T04:05:50.947Z,47.26
2024-05-09T04:06:53.385Z,47.45
2024-05-09T04:07:55.620Z,47.63
2024-05-09T04:09:03.459Z,47.96
2024-05-09T04:10:11.142Z,48.56
2024-05-09T04:11:19.279Z,47.98
2024-05-09T04:12:21.617Z,48.23
2024-05-09T04:13:23.910Z,48.73
2024-05-09T04:14:34.160Z,48.35
2024-05-09T04:16:05.818Z,48.38
2024-05-09T04:17:11.733Z,48.10
2024-05-09T04:18:16.440Z,48.46
2024-05-09T04:19:23.179Z,48.25
2024-05-09T04:20:36.726Z,48.75
2024-05-09T04:21:49.642Z,48.47
2024-05-09T04:22:58.715Z,48.81
2024-05-09T04:24:00.933Z,48.50
2024-05-09T04:25:03.583Z,47.79
2024-05-09T04:26:07.971Z,47.90
2024-05-09T04:27:10.282Z,48.02
2024-05-09T04:28:15.681Z,47.25
2024-05-09T04:29:20.006Z,47.93
2024-05-09T04:30:34.683Z,47.69
2024-05-09T04:31:42.630Z,47.72
2024-05-09T04:32:45.243Z,47.66
2024-05-09T04:33:50.127Z,47.53
2024-05-09T04:34:56.686Z,47.16
2024-05-09T04:36:03.958Z,46.99
2024-05-09T04:37:06.010Z,46.47
2024-05-09T04:38:08.635Z,45.91
2024-05-09T04:39:10.932Z,45.93
2024-05-09T04:40:24.217Z,44.77
2024-05-09T04:41:58.413Z,42.62
2024-05-09T04:43:01.195Z,42.04
2024-05-09T04:44:03.753Z,40.27
2024-05-09T04:45:06.328Z,39.64
2024-05-09T04:46:08.557Z,38.01
2024-05-09T04:47:11.770Z,39.19
2024-05-09T04:48:15.224Z,39.40
2024-05-09T04:49:17.883Z,38.87
2024-05-09T04:50:29.330Z,39.17
2024-05-09T04:51:37.896Z,38.81
2024-05-09T04:52:40.215Z,38.49
2024-05-09T04:53:42.880Z,38.99
2024-05-09T04:54:46.419Z,39.45
2024-05-09T04:55:49.386Z,39.36
2024-05-09T04:56:51.662Z,39.41
2024-05-09T04:57:53.862Z,39.88
2024-05-09T04:58:57.741Z,38.50
2024-05-09T05:00:01.323Z,37.74
2024-05-09T05:01:28.525Z,37.08
2024-05-09T05:02:31.828Z,37.17
2024-05-09T05:03:36.970Z,37.44
2024-05-09T05:04:39.436Z,36.85
2024-05-09T05:05:43.392Z,36.78
2024-05-09T05:06:48.455Z,36.17
2024-05-09T05:07:50.891Z,36.60
2024-05-09T05:09:01.868Z,36.17
2024-05-09T05:10:05.838Z,36.81
2024-05-09T05:11:14.106Z,36.62
2024-05-09T05:12:36.235Z,36.23
2024-05-09T05:13:41.445Z,35.48
2024-05-09T05:14:45.772Z,36.05
2024-05-09T05:15:57.390Z,36.09
2024-05-09T05:17:26.616Z,35.67
2024-05-09T05:18:29.426Z,36.06
2024-05-09T05:19:32.125Z,36.35
2024-05-09T05:20:38.061Z,36.25
2024-05-09T05:21:44.662Z,36.35
2024-05-09T05:22:47.841Z,36.32
2024-05-09T05:23:53.774Z,35.72
2024-05-09T05:24:56.079Z,35.17
2024-05-09T05:25:58.084Z,35.71
2024-05-09T05:27:03.812Z,35.10
2024-05-09T05:28:06.784Z,34.54
2024-05-09T05:29:09.121Z,34.01
2024-05-09T05:30:17.639Z,34.97
2024-05-09T05:31:23.571Z,34.08
2024-05-09T05:32:26.941Z,34.28
2024-05-09T05:33:41.056Z,33.63
2024-05-09T05:34:43.184Z,34.41
2024-05-09T05:35:46.759Z,34.08
2024-05-09T05:36:49.356Z,33.45
2024-05-09T05:37:52.248Z,33.41
2024-05-09T05:38:55.325Z,32.26
2024-05-09T05:39:58.446Z,33.41
2024-05-09T05:41:00.802Z,33.97
2024-05-09T05:42:06.661Z,34.76
2024-05-09T05:43:15.925Z,33.01
2024-05-09T05:44:18.946Z,33.23
2024-05-09T05:45:21.407Z,32.95
2024-05-09T05:46:23.622Z,33.71
2024-05-09T05:47:26.049Z,34.55
2024-05-09T05:48:33.526Z,34.27
2024-05-09T05:49:35.973Z,34.07
2024-05-09T05:50:38.910Z,34.86
2024-05-09T05:51:41.522Z,34.31
2024-05-09T05:52:43.798Z,34.20
2024-05-09T05:53:46.253Z,34.59
2024-05-09T05:54:48.540Z,34.66
2024-05-09T05:55:52.589Z,35.47
2024-05-09T05:56:56.559Z,35.28
2024-05-09T05:58:00.836Z,34.97
2024-05-09T05:59:03.133Z,35.28
2024-05-09T06:00:17.989Z,35.85
2024-05-09T06:01:28.034Z,36.18
2024-05-09T06:02:31.548Z,35.48
2024-05-09T06:03:34.114Z,36.21
2024-05-09T06:04:36.552Z,36.01
2024-05-09T06:05:39.018Z,35.94
2024-05-09T06:06:43.577Z,36.11
2024-05-09T06:07:48.662Z,36.46
2024-05-09T06:08:51.397Z,35.54
2024-05-09T06:09:54.615Z,35.92
2024-05-09T06:10:57.147Z,35.42
2024-05-09T06:11:59.553Z,34.32
2024-05-09T06:13:01.800Z,34.62
2024-05-09T06:14:04.434Z,35.15
2024-05-09T06:15:06.961Z,37.16
2024-05-09T06:16:09.473Z,36.02
2024-05-09T06:17:12.079Z,35.96
2024-05-09T06:18:17.069Z,35.44
2024-05-09T06:19:19.574Z,36.89
2024-05-09T06:20:27.836Z,37.23
2024-05-09T06:21:36.981Z,37.58
2024-05-09T06:22:39.258Z,38.88
2024-05-09T06:23:48.936Z,37.48
2024-05-09T06:24:51.742Z,38.59
2024-05-09T06:25:54.084Z,38.94
2024-05-09T06:26:56.373Z,38.81
2024-05-09T06:28:02.531Z,38.84
2024-05-09T06:29:05.837Z,39.39
2024-05-09T06:30:14.451Z,39.38
2024-05-09T06:31:23.315Z,39.23
2024-05-09T06:32:25.675Z,39.37
2024-05-09T06:33:28.406Z,39.62
2024-05-09T06:34:35.328Z,39.54
2024-05-09T06:35:38.084Z,39.63
2024-05-09T06:36:40.450Z,39.72
2024-05-09T06:37:42.754Z,39.26
2024-05-09T06:38:49.929Z,39.13
2024-05-09T06:39:53.109Z,39.67
2024-05-09T06:40:55.414Z,40.08
2024-05-09T06:41:57.897Z,39.69
2024-05-09T06:43:00.169Z,38.97
2024-05-09T06:44:05.369Z,39.54
2024-05-09T06:45:11.104Z,38.90
2024-05-09T06:46:13.303Z,38.94
2024-05-09T06:47:15.757Z,39.59
2024-05-09T06:48:20.213Z,39.15
2024-05-09T06:49:22.940Z,38.80
2024-05-09T06:50:28.371Z,38.66
2024-05-09T06:51:36.668Z,39.12
2024-05-09T06:52:38.904Z,38.35
2024-05-09T06:53:41.299Z,38.22
2024-05-09T06:54:44.929Z,38.21
2024-05-09T06:55:51.813Z,38.70
2024-05-09T06:56:53.846Z,38.83
2024-05-09T06:57:56.046Z,38.67
2024-05-09T06:58:58.562Z,38.46
2024-05-09T07:00:01.103Z,38.34
2024-05-09T07:01:05.325Z,38.64
2024-05-09T07:02:07.495Z,38.70
2024-05-09T07:04:13.531Z,39.05
2024-05-09T07:05:16.035Z,38.55
2024-05-09T07:06:18.504Z,39.22
2024-05-09T07:07:20.869Z,39.55
2024-05-09T07:08:23.229Z,39.71
2024-05-09T07:09:25.630Z,39.53
2024-05-09T07:10:32.930Z,39.47
2024-05-09T07:11:37.982Z,39.13
2024-05-09T07:12:40.336Z,39.50
2024-05-09T07:13:42.876Z,38.75
2024-05-09T07:14:45.197Z,39.24
2024-05-09T07:15:50.123Z,38.22
2024-05-09T07:16:54.079Z,39.11
2024-05-09T07:17:57.992Z,39.45
2024-05-09T07:19:00.202Z,39.65
2024-05-09T07:20:08.995Z,40.14
2024-05-09T07:21:11.712Z,40.28
2024-05-09T07:22:14.822Z,40.19
2024-05-09T07:23:17.578Z,39.71
2024-05-09T07:24:20.157Z,40.37
2024-05-09T07:25:22.774Z,39.80
2024-05-09T07:26:25.173Z,39.58
2024-05-09T07:27:30.132Z,39.21
2024-05-09T07:28:33.439Z,39.18
2024-05-09T07:29:38.540Z,39.64
2024-05-09T07:30:43.671Z,37.57
2024-05-09T07:31:46.891Z,39.51
2024-05-09T07:32:52.091Z,39.10
2024-05-09T07:33:54.497Z,38.49
2024-05-09T07:34:56.901Z,38.20
2024-05-09T07:35:59.422Z,38.94
2024-05-09T07:37:01.804Z,38.58
2024-05-09T07:38:04.141Z,39.23
2024-05-09T07:39:07.554Z,38.30
2024-05-09T07:40:14.740Z,38.67
2024-05-09T07:41:23.289Z,38.40
2024-05-09T07:42:25.674Z,38.21
2024-05-09T07:43:28.061Z,38.72
2024-05-09T07:44:32.024Z,39.20
2024-05-09T07:47:44.967Z,39.48
2024-05-09T07:50:54.071Z,38.14
2024-05-09T07:53:22.015Z,37.74
2024-05-09T07:53:38.748Z,38.04
2024-05-09T07:54:44.293Z,38.60
2024-05-09T07:55:47.597Z,39.17
2024-05-09T07:56:50.833Z,39.27
2024-05-09T07:57:53.336Z,37.77
2024-05-09T07:58:55.906Z,38.98
2024-05-09T08:00:29.770Z,38.80
2024-05-09T08:01:34.199Z,38.87
2024-05-09T08:02:36.514Z,37.79
2024-05-09T08:03:39.614Z,38.21
2024-05-09T08:04:42.273Z,39.39
2024-05-09T08:05:44.705Z,39.82
2024-05-09T08:06:48.948Z,38.58
2024-05-09T08:07:54.180Z,38.52
2024-05-09T08:09:00.852Z,38.38
2024-05-09T08:10:08.137Z,39.41
2024-05-09T08:11:19.385Z,39.63
2024-05-09T08:12:21.688Z,38.27
2024-05-09T08:13:27.664Z,37.70
2024-05-09T08:14:32.634Z,37.69
2024-05-09T08:15:36.731Z,39.22
2024-05-09T08:16:43.703Z,39.51
2024-05-09T08:17:47.854Z,38.18
2024-05-09T08:18:50.633Z,38.68
2024-05-09T08:19:55.413Z,38.59
2024-05-09T08:20:57.859Z,37.70
2024-05-09T08:22:05.817Z,39.98
2024-05-09T08:23:08.083Z,37.33
2024-05-09T08:24:10.454Z,37.88
2024-05-09T08:25:14.581Z,38.69
2024-05-09T08:26:17.669Z,37.44
2024-05-09T08:27:19.968Z,38.10
2024-05-09T08:28:47.880Z,39.26
2024-05-09T08:29:56.043Z,38.47
2024-05-09T08:30:58.831Z,37.65
2024-05-09T08:32:01.817Z,38.36
2024-05-09T08:33:06.471Z,37.26
2024-05-09T08:34:10.754Z,37.29
2024-05-09T08:35:17.838Z,37.89
2024-05-09T08:36:20.191Z,38.75
2024-05-09T08:37:26.000Z,37.65
2024-05-09T08:38:32.175Z,37.83
2024-05-09T08:39:34.536Z,38.97
2024-05-09T08:40:38.095Z,37.93
2024-05-09T08:42:06.916Z,38.24
2024-05-09T08:43:14.498Z,39.38
2024-05-09T08:44:19.023Z,37.98
2024-05-09T08:45:25.338Z,39.11
2024-05-09T08:46:30.290Z,38.75
2024-05-09T08:47:37.334Z,39.63
2024-05-09T08:48:44.597Z,40.08
2024-05-09T08:49:50.595Z,38.07
2024-05-09T08:50:53.017Z,38.94
2024-05-09T08:51:58.782Z,39.22
2024-05-09T08:53:01.269Z,37.93
2024-05-09T08:54:07.860Z,38.58
2024-05-09T08:55:14.811Z,38.73
2024-05-09T08:56:20.339Z,37.83
2024-05-09T08:57:25.097Z,38.04
2024-05-09T08:58:38.239Z,37.95
2024-05-09T08:59:49.764Z,38.40
2024-05-09T09:00:55.629Z,38.80
2024-05-09T09:02:12.787Z,39.37
2024-05-09T09:03:19.953Z,37.62
2024-05-09T09:05:20.186Z,38.93
2024-05-09T09:06:24.567Z,38.14
2024-05-09T09:07:32.420Z,39.67
2024-05-09T09:08:41.464Z,37.96
2024-05-09T09:09:46.838Z,38.06
2024-05-09T09:10:59.182Z,38.16
2024-05-09T09:12:08.656Z,39.21
2024-05-09T09:13:14.831Z,38.29
2024-05-09T09:14:17.150Z,38.80
2024-05-09T09:15:20.494Z,39.15
2024-05-09T09:16:35.457Z,38.85
2024-05-09T09:17:40.965Z,39.00
2024-05-09T09:18:45.235Z,38.02
2024-05-09T09:19:47.659Z,38.42
2024-05-09T09:20:50.418Z,37.66
2024-05-09T09:21:52.740Z,39.21
2024-05-09T09:22:57.657Z,38.11
2024-05-09T09:23:59.992Z,38.41
2024-05-09T09:25:10.205Z,37.88
2024-05-09T09:26:15.789Z,37.78
2024-05-09T09:27:18.527Z,39.21
2024-05-09T09:28:21.983Z,38.54
2024-05-09T09:29:49.333Z,37.94
2024-05-09T09:31:00.352Z,38.85
2024-05-09T09:32:04.282Z,38.63
2024-05-09T09:33:10.763Z,38.84
2024-05-09T09:34:13.862Z,38.81
2024-05-09T09:35:16.391Z,39.58
2024-05-09T09:36:19.466Z,39.67
2024-05-09T09:37:33.780Z,38.12
2024-05-09T09:38:38.547Z,38.69
2024-05-09T09:39:43.755Z,38.50
2024-05-09T09:40:53.503Z,38.04
2024-05-09T09:41:59.729Z,38.50
2024-05-09T09:43:05.942Z,40.29
2024-05-09T09:44:11.141Z,39.03
2024-05-09T09:45:16.399Z,38.60
2024-05-09T09:46:45.076Z,38.91
2024-05-09T09:47:58.306Z,37.98
2024-05-09T09:49:01.635Z,39.79
2024-05-09T09:50:11.831Z,39.37
2024-05-09T09:51:20.227Z,37.64
2024-05-09T09:52:23.755Z,39.82
2024-05-09T09:53:32.203Z,39.79
2024-05-09T09:54:34.884Z,38.99
2024-05-09T09:55:40.633Z,38.79
2024-05-09T09:56:44.510Z,40.01
2024-05-09T09:57:48.313Z,38.56
2024-05-09T09:59:00.356Z,38.54
2024-05-09T10:00:04.305Z,40.91
2024-05-09T10:01:16.376Z,38.82
2024-05-09T10:02:19.019Z,38.34
2024-05-09T10:03:21.752Z,38.50
2024-05-09T10:04:48.770Z,38.39
2024-05-09T10:05:53.058Z,38.17
2024-05-09T10:07:04.365Z,37.31
2024-05-09T10:08:09.447Z,36.66
2024-05-09T10:09:36.453Z,38.08
2024-05-09T10:10:38.978Z,37.88
2024-05-09T10:11:49.240Z,37.10
2024-05-09T10:13:03.823Z,37.25
2024-05-09T10:14:07.406Z,37.88
2024-05-09T10:15:10.142Z,36.54
2024-05-09T10:16:19.011Z,37.22
2024-05-09T10:17:24.518Z,36.42
2024-05-09T10:18:37.043Z,36.15
2024-05-09T10:19:47.083Z,36.82
2024-05-09T10:20:53.346Z,37.99
2024-05-09T10:22:05.717Z,36.64
2024-05-09T10:23:26.985Z,35.75
2024-05-09T10:24:51.396Z,36.44
2024-05-09T10:26:00.430Z,37.46
2024-05-09T10:27:05.653Z,35.97
2024-05-09T10:28:14.766Z,35.82
2024-05-09T10:29:18.505Z,37.94
2024-05-09T10:30:29.610Z,36.25
2024-05-09T10:31:46.459Z,37.07
2024-05-09T10:32:52.562Z,37.78
2024-05-09T10:34:20.730Z,35.69
2024-05-09T10:35:25.505Z,37.10
2024-05-09T10:36:28.748Z,37.21
2024-05-09T10:37:32.054Z,36.42
2024-05-09T10:38:35.412Z,37.45
2024-05-09T10:39:38.469Z,37.04
2024-05-09T10:40:50.238Z,37.32
2024-05-09T10:41:55.666Z,37.63
2024-05-09T10:43:05.617Z,36.14
2024-05-09T10:44:16.085Z,37.81
2024-05-09T10:45:18.488Z,35.96
2024-05-09T10:46:21.226Z,37.25
2024-05-09T10:47:25.464Z,37.26
2024-05-09T10:48:29.918Z,36.42
2024-05-09T10:49:39.911Z,37.45
2024-05-09T10:50:45.851Z,37.66
2024-05-09T10:51:48.489Z,36.31
2024-05-09T10:52:54.393Z,36.38
2024-05-09T10:53:57.933Z,37.36
2024-05-09T10:55:01.648Z,35.96
2024-05-09T10:56:08.459Z,35.71
2024-05-09T10:57:11.565Z,34.80
2024-05-09T10:58:17.115Z,36.23
2024-05-09T10:59:19.756Z,35.60
2024-05-09T11:00:27.805Z,35.90
2024-05-09T11:01:36.372Z,35.77
2024-05-09T11:02:40.161Z,36.14
2024-05-09T11:03:50.426Z,37.09
2024-05-09T11:04:53.931Z,36.49
2024-05-09T11:05:56.611Z,35.53
2024-05-09T11:07:05.478Z,35.03
2024-05-09T11:08:09.071Z,38.36
2024-05-09T11:09:11.444Z,36.58
2024-05-09T11:10:17.821Z,36.97
2024-05-09T11:11:25.270Z,35.53
2024-05-09T11:12:30.311Z,37.64
2024-05-09T11:13:38.531Z,37.83
2024-05-09T11:14:51.682Z,37.15
2024-05-09T11:15:54.194Z,37.97
2024-05-09T11:17:09.680Z,36.66
2024-05-09T11:18:24.931Z,37.45
2024-05-09T11:19:32.268Z,36.45
2024-05-09T11:20:35.712Z,35.68
2024-05-09T11:21:38.975Z,35.55
2024-05-09T11:22:41.743Z,35.67
2024-05-09T11:23:44.318Z,36.97
2024-05-09T11:24:47.745Z,35.47
2024-05-09T11:25:57.334Z,36.54
2024-05-09T11:27:03.466Z,35.98
2024-05-09T11:28:06.368Z,36.44
2024-05-09T11:29:08.618Z,34.99
2024-05-09T11:30:34.102Z,37.01
2024-05-09T11:31:46.326Z,36.72
2024-05-09T11:32:49.839Z,37.38
2024-05-09T11:33:53.387Z,35.04
2024-05-09T11:34:56.771Z,35.01
2024-05-09T11:35:59.027Z,35.96
2024-05-09T11:37:01.197Z,36.79
2024-05-09T11:38:04.119Z,35.63
2024-05-09T11:39:06.614Z,36.14
2024-05-09T11:40:16.838Z,36.79
2024-05-09T11:41:23.491Z,35.18
2024-05-09T11:42:29.276Z,34.75
2024-05-09T11:43:32.046Z,35.31
2024-05-09T11:44:34.383Z,35.60
2024-05-09T11:45:46.013Z,36.09
2024-05-09T11:46:51.684Z,36.62
2024-05-09T11:47:54.173Z,36.55
2024-05-09T11:48:56.703Z,36.45
2024-05-09T11:50:01.238Z,36.30
2024-05-09T11:51:04.143Z,38.19
2024-05-09T11:52:06.412Z,36.39
2024-05-09T11:53:08.691Z,36.74
2024-05-09T11:54:14.984Z,35.81
2024-05-09T11:55:17.615Z,35.71
2024-05-09T11:56:21.085Z,33.73
2024-05-09T11:57:26.880Z,34.06
2024-05-09T11:58:33.164Z,34.69
2024-05-09T11:59:36.321Z,35.35
2024-05-09T12:00:38.594Z,37.11
2024-05-09T12:01:41.279Z,36.84
2024-05-09T12:02:43.753Z,34.85
2024-05-09T12:03:49.604Z,34.95
2024-05-09T12:04:52.088Z,36.43
2024-05-09T12:05:54.321Z,34.56
2024-05-09T12:06:56.763Z,37.26
2024-05-09T12:07:59.725Z,34.76
2024-05-09T12:09:01.986Z,35.34
2024-05-09T12:10:11.953Z,35.67
2024-05-09T12:11:19.607Z,35.72
2024-05-09T12:12:21.644Z,36.24
2024-05-09T12:13:24.130Z,37.20
2024-05-09T12:14:26.524Z,35.19
2024-05-09T12:15:28.997Z,35.80
2024-05-09T12:16:34.931Z,34.46
2024-05-09T12:17:37.928Z,36.65
2024-05-09T12:18:40.355Z,34.17
2024-05-09T12:19:42.806Z,33.73
2024-05-09T12:20:44.913Z,34.27
2024-05-09T12:22:13.230Z,34.75
2024-05-09T12:23:19.713Z,35.39
2024-05-09T12:24:23.907Z,35.46
2024-05-09T12:25:26.290Z,34.57
2024-05-09T12:26:29.092Z,34.18
2024-05-09T12:27:36.078Z,33.21
2024-05-09T12:28:39.739Z,35.39
2024-05-09T12:29:42.081Z,34.44
2024-05-09T12:30:44.546Z,35.34
2024-05-09T12:31:47.806Z,33.92
2024-05-09T12:32:50.398Z,35.62
2024-05-09T12:33:56.744Z,34.99
2024-05-09T12:34:59.727Z,35.46
2024-05-09T12:36:01.988Z,33.23
2024-05-09T12:37:32.223Z,34.82
2024-05-09T12:38:34.874Z,33.71
2024-05-09T12:39:37.196Z,33.83
2024-05-09T12:40:42.487Z,33.92
2024-05-09T12:41:44.897Z,34.80
2024-05-09T12:42:47.191Z,34.45
2024-05-09T12:43:49.489Z,34.23
2024-05-09T12:44:51.779Z,35.52
2024-05-09T12:45:54.270Z,34.11
2024-05-09T12:46:56.594Z,34.01
2024-05-09T12:47:59.841Z,35.57
2024-05-09T12:49:02.565Z,34.66
2024-05-09T12:50:08.318Z,32.91
2024-05-09T12:51:15.801Z,33.40
2024-05-09T12:52:23.216Z,32.26
2024-05-09T12:53:25.555Z,32.34
2024-05-09T12:54:30.697Z,33.41
2024-05-09T12:55:40.152Z,33.31
2024-05-09T12:56:50.306Z,33.90
2024-05-09T12:57:54.290Z,32.74
2024-05-09T12:58:59.709Z,32.39
2024-05-09T13:00:09.346Z,33.17
2024-05-09T13:01:16.001Z,32.95
2024-05-09T13:02:21.764Z,33.37
2024-05-09T13:03:50.108Z,34.18
2024-05-09T13:04:55.868Z,33.66
2024-05-09T13:05:58.475Z,34.07
2024-05-09T13:07:04.296Z,35.29
2024-05-09T13:08:10.875Z,34.89
2024-05-09T13:09:15.172Z,32.92
2024-05-09T13:10:25.553Z,32.68
2024-05-09T13:11:35.898Z,32.22
2024-05-09T13:13:03.389Z,33.63
2024-05-09T13:14:05.783Z,33.15
2024-05-09T13:15:11.534Z,31.64
2024-05-09T13:16:17.075Z,33.50
2024-05-09T13:17:20.262Z,34.82
2024-05-09T13:18:22.626Z,32.04
2024-05-09T13:19:24.903Z,35.17
2024-05-09T13:20:32.460Z,33.52
2024-05-09T13:21:36.659Z,32.86
2024-05-09T13:22:43.275Z,32.77
2024-05-09T13:23:45.949Z,32.55
2024-05-09T13:24:51.218Z,33.47
2024-05-09T13:25:53.965Z,32.38
2024-05-09T13:26:56.307Z,33.55
2024-05-09T13:27:59.132Z,34.22
2024-05-09T13:29:04.714Z,32.43
2024-05-09T13:30:14.545Z,32.24
2024-05-09T13:31:20.249Z,32.45
2024-05-09T13:32:23.075Z,33.41
2024-05-09T13:33:50.267Z,33.12
2024-05-09T13:34:53.852Z,32.71
2024-05-09T13:35:56.828Z,32.59
2024-05-09T13:36:59.514Z,32.38
2024-05-09T13:38:03.111Z,32.53
2024-05-09T13:39:05.891Z,31.75
2024-05-09T13:40:12.031Z,32.79
2024-05-09T13:41:17.735Z,32.65
2024-05-09T13:42:48.951Z,32.48
2024-05-09T13:43:52.602Z,32.60
2024-05-09T13:44:55.027Z,33.28
2024-05-09T13:46:01.275Z,33.70
2024-05-09T13:47:08.385Z,33.69
2024-05-09T13:48:13.240Z,33.80
2024-05-09T13:49:16.079Z,32.42
2024-05-09T13:50:27.975Z,32.21
2024-05-09T13:51:36.894Z,31.28
2024-05-09T13:52:40.715Z,32.46
2024-05-09T13:53:42.989Z,31.58
2024-05-09T13:54:45.406Z,31.31
2024-05-09T13:55:50.314Z,30.87
2024-05-09T13:56:52.652Z,31.25
2024-05-09T13:57:55.192Z,31.78
2024-05-09T13:58:58.008Z,31.27
2024-05-09T14:00:00.288Z,31.41
2024-05-09T14:01:03.111Z,30.69
2024-05-09T14:02:07.157Z,30.94
2024-05-09T14:03:09.872Z,32.17
2024-05-09T14:04:14.692Z,29.96
2024-05-09T14:05:18.380Z,30.46
2024-05-09T14:06:21.010Z,29.29
2024-05-09T14:07:24.875Z,30.60
2024-05-09T14:08:28.941Z,30.41
2024-05-09T14:09:32.324Z,30.54
2024-05-09T14:10:42.154Z,30.23
2024-05-09T14:11:44.480Z,30.44
2024-05-09T14:12:49.795Z,30.16
2024-05-09T14:13:52.479Z,31.37
2024-05-09T14:14:54.954Z,31.67
2024-05-09T14:15:58.744Z,29.86
2024-05-09T14:17:01.801Z,31.20
2024-05-09T14:18:05.341Z,31.09